Time;durP1;ratioP1;P1;durP2;ratioP2;P2;SDS_P1;SDS_P2;PMS_P1;PMS_P2;Temp;Humidity;BMP_temperature;BMP_pressure;BME280_temperature;BME280_humidity;BME280_pressure;Samples;Min_cycle;Max_cycle;Signal;HPM_P1;HPM_P2
2023/10/20 00:02:22;;;;;;;31.93;19.50;;;8.20;99.90;;;;;;4993604;28;20273;-77
2023/10/20 00:04:48;;;;;;;36.00;19.67;;;8.20;99.90;;;;;;4996484;28;20282;-76
2023/10/20 00:07:14;;;;;;;34.60;21.23;;;8.20;99.90;;;;;;4997210;28;20293;-76
2023/10/20 00:09:41;;;;;;;34.50;19.80;;;8.20;99.90;;;;;;4997937;28;20281;-77
2023/10/20 00:12:06;;;;;;;41.57;22.17;;;8.20;99.90;;;;;;4980059;28;20058;-76
2023/10/20 00:14:32;;;;;;;39.83;21.50;;;8.20;99.90;;;;;;4996004;28;20285;-77
2023/10/20 00:16:58;;;;;;;36.53;21.67;;;8.20;99.90;;;;;;4997195;28;20054;-76
2023/10/20 00:19:23;;;;;;;37.30;20.57;;;8.20;99.90;;;;;;4997081;28;20046;-77
2023/10/20 00:21:51;;;;;;;30.17;19.13;;;8.20;99.90;;;;;;4997023;28;20069;-77
2023/10/20 00:24:17;;;;;;;34.17;20.10;;;8.20;99.90;;;;;;4997011;28;20042;-77
2023/10/20 00:26:43;;;;;;;28.70;18.17;;;8.20;99.90;;;;;;4996541;28;20369;-77
2023/10/20 00:29:09;;;;;;;28.50;17.70;;;8.20;99.90;;;;;;4996613;28;20062;-77
2023/10/20 00:31:35;;;;;;;29.00;17.90;;;8.20;99.90;;;;;;4997415;28;20709;-77
2023/10/20 00:34:01;;;;;;;30.50;18.43;;;8.20;99.90;;;;;;4995920;28;20290;-76
2023/10/20 00:36:27;;;;;;;31.70;18.97;;;8.30;99.90;;;;;;4995561;28;20497;-77
2023/10/20 00:38:53;;;;;;;31.50;18.93;;;8.20;99.90;;;;;;4995641;28;20088;-77
2023/10/20 00:41:19;;;;;;;34.20;19.93;;;8.20;99.90;;;;;;4996709;28;20765;-76
2023/10/20 00:43:44;;;;;;;34.23;19.63;;;8.20;99.90;;;;;;4996208;28;20061;-76
2023/10/20 00:46:10;;;;;;;37.67;21.23;;;8.20;99.90;;;;;;4979677;28;20115;-76
2023/10/20 00:48:36;;;;;;;33.73;19.80;;;8.20;99.90;;;;;;4995534;28;20478;-76
2023/10/20 00:51:05;;;;;;;33.73;21.40;;;8.20;99.90;;;;;;4997068;28;20050;-76
2023/10/20 00:53:32;;;;;;;32.97;20.27;;;8.20;99.90;;;;;;4996433;28;20050;-76
2023/10/20 00:56:00;;;;;;;46.37;22.50;;;8.10;99.90;;;;;;4995459;28;20289;-76
2023/10/20 00:58:27;;;;;;;33.83;20.00;;;8.20;99.90;;;;;;4996819;28;20285;-81
2023/10/20 01:00:53;;;;;;;39.47;22.00;;;8.10;99.90;;;;;;4995192;28;20285;-77
2023/10/20 01:03:20;;;;;;;44.40;24.13;;;8.10;99.90;;;;;;4995886;28;20290;-76
2023/10/20 01:05:46;;;;;;;45.63;24.10;;;8.10;99.90;;;;;;4996158;28;20085;-76
2023/10/20 01:08:13;;;;;;;39.40;23.03;;;8.10;99.90;;;;;;4996062;28;20311;-76
2023/10/20 01:10:39;;;;;;;42.00;21.77;;;8.10;99.90;;;;;;4996135;28;20328;-76
2023/10/20 01:13:05;;;;;;;40.33;22.47;;;8.10;99.90;;;;;;4994926;28;20329;-76
2023/10/20 01:15:31;;;;;;;51.70;24.07;;;8.20;99.90;;;;;;4995384;28;20046;-77
2023/10/20 01:17:57;;;;;;;47.43;23.90;;;8.10;99.90;;;;;;4996026;28;20312;-76
2023/10/20 01:20:23;;;;;;;46.47;25.00;;;8.10;99.90;;;;;;4996709;28;20305;-76
2023/10/20 01:22:49;;;;;;;45.27;21.90;;;8.10;99.90;;;;;;4995821;28;20145;-76
2023/10/20 01:25:15;;;;;;;49.13;23.50;;;8.10;99.90;;;;;;4978420;28;20394;-76
2023/10/20 01:27:41;;;;;;;52.90;25.77;;;8.20;99.90;;;;;;4995602;28;20304;-76
2023/10/20 01:30:07;;;;;;;51.77;24.03;;;8.10;99.90;;;;;;4995924;28;20084;-76
2023/10/20 01:32:33;;;;;;;55.17;25.47;;;8.10;99.90;;;;;;4994727;28;20039;-76
2023/10/20 01:35:00;;;;;;;60.40;25.93;;;8.10;99.90;;;;;;4995683;28;20281;-76
2023/10/20 01:37:25;;;;;;;58.17;26.53;;;8.10;99.90;;;;;;4994946;28;20290;-75
2023/10/20 01:39:51;;;;;;;60.70;25.63;;;8.10;99.90;;;;;;4995830;28;20288;-76
2023/10/20 01:42:17;;;;;;;55.67;25.47;;;8.10;99.90;;;;;;4994352;28;20046;-76
2023/10/20 01:44:42;;;;;;;57.23;27.83;;;8.10;99.90;;;;;;4978440;28;20128;-76
2023/10/20 01:47:08;;;;;;;55.63;25.77;;;8.10;99.90;;;;;;4995176;28;20053;-76
2023/10/20 01:49:34;;;;;;;60.63;27.03;;;8.10;99.90;;;;;;4978758;28;20054;-77
2023/10/20 01:52:00;;;;;;;55.23;25.93;;;8.10;99.90;;;;;;4995441;28;20054;-76
2023/10/20 01:54:25;;;;;;;58.73;26.43;;;8.10;99.90;;;;;;4995130;28;20042;-75
2023/10/20 01:56:51;;;;;;;62.33;27.43;;;8.10;99.90;;;;;;4995280;28;20077;-76
2023/10/20 01:59:16;;;;;;;49.77;24.60;;;8.10;99.90;;;;;;4995274;28;20050;-75
2023/10/20 02:01:42;;;;;;;65.90;30.33;;;8.10;99.90;;;;;;4994880;28;20134;-76
2023/10/20 02:04:08;;;;;;;63.20;26.67;;;8.10;99.90;;;;;;4993701;28;20064;-76
2023/10/20 02:06:34;;;;;;;66.90;29.23;;;8.10;99.90;;;;;;4995133;28;20050;-81
2023/10/20 02:09:01;;;;;;;65.53;27.83;;;8.20;99.90;;;;;;4993817;28;20045;-76
2023/10/20 02:11:27;;;;;;;73.60;28.33;;;8.10;99.90;;;;;;4995013;28;20328;-76
2023/10/20 02:13:53;;;;;;;71.90;29.23;;;8.10;99.90;;;;;;4995452;28;20317;-76
2023/10/20 02:16:19;;;;;;;72.80;29.87;;;8.10;99.90;;;;;;4977457;28;20107;-76
2023/10/20 02:18:45;;;;;;;62.87;27.97;;;8.10;99.90;;;;;;4994766;28;20282;-76
2023/10/20 02:21:10;;;;;;;65.43;28.00;;;8.10;99.90;;;;;;4994001;28;20141;-76
2023/10/20 02:23:40;;;;;;;69.27;30.73;;;8.10;99.90;;;;;;4977608;28;20097;-82
2023/10/20 02:26:07;;;;;;;78.83;30.13;;;8.10;99.90;;;;;;4993799;28;20400;-76
2023/10/20 02:28:34;;;;;;;65.30;29.30;;;8.10;99.90;;;;;;4994424;28;20359;-76
2023/10/20 02:31:01;;;;;;;78.00;31.47;;;8.10;99.90;;;;;;4995435;28;20423;-76
2023/10/20 02:33:27;;;;;;;64.50;29.50;;;8.10;99.90;;;;;;4995121;28;20321;-76
2023/10/20 02:35:56;;;;;;;62.80;30.30;;;8.10;99.90;;;;;;4994132;28;20797;-77
2023/10/20 02:38:22;;;;;;;63.10;29.17;;;8.20;99.90;;;;;;4994547;28;20376;-77
2023/10/20 02:40:52;;;;;;;57.97;27.13;;;8.10;99.90;;;;;;4994561;28;20341;-76
2023/10/20 02:43:18;;;;;;;61.00;29.17;;;8.20;99.90;;;;;;4994489;28;20061;-76
2023/10/20 02:45:49;;;;;;;55.63;27.93;;;8.20;99.90;;;;;;4993676;28;20289;-76
2023/10/20 02:48:15;;;;;;;58.87;26.67;;;8.20;99.90;;;;;;4994315;28;20337;-76
2023/10/20 02:50:41;;;;;;;63.97;28.30;;;8.20;99.90;;;;;;4994218;28;20294;-77
2023/10/20 02:53:07;;;;;;;59.77;29.13;;;8.20;99.90;;;;;;4994368;28;20288;-76
2023/10/20 02:55:33;;;;;;;61.47;27.73;;;8.20;99.90;;;;;;4994303;28;20630;-75
2023/10/20 02:58:00;;;;;;;62.73;28.90;;;8.20;99.90;;;;;;4994101;28;20293;-77
2023/10/20 03:00:26;;;;;;;60.73;27.47;;;8.10;99.90;;;;;;4994037;28;20300;-76
2023/10/20 03:02:53;;;;;;;53.77;26.97;;;8.10;99.90;;;;;;4992907;28;20426;-77
2023/10/20 03:05:20;;;;;;;67.63;28.40;;;8.10;99.90;;;;;;4994160;28;20285;-76
2023/10/20 03:07:47;;;;;;;67.50;29.30;;;8.10;99.90;;;;;;4993094;28;20351;-76
2023/10/20 03:10:13;;;;;;;50.10;24.90;;;8.10;99.90;;;;;;4994096;28;20282;-76
2023/10/20 03:12:39;;;;;;;63.47;29.67;;;8.10;99.90;;;;;;4993909;28;20364;-76
2023/10/20 03:15:07;;;;;;;66.70;28.20;;;8.10;99.90;;;;;;4993093;28;20297;-76
2023/10/20 03:17:33;;;;;;;52.23;25.53;;;8.10;99.90;;;;;;4994856;28;20058;-76
2023/10/20 03:19:59;;;;;;;59.30;27.93;;;8.10;99.90;;;;;;4993493;28;20607;-76
2023/10/20 03:22:24;;;;;;;48.43;23.23;;;8.10;99.90;;;;;;4993819;28;20493;-76
2023/10/20 03:24:50;;;;;;;53.97;24.60;;;8.20;99.90;;;;;;4993854;28;20133;-76
2023/10/20 03:27:17;;;;;;;51.33;25.37;;;8.10;99.90;;;;;;4993013;28;20097;-76
2023/10/20 03:29:43;;;;;;;47.80;24.07;;;8.10;99.90;;;;;;4993634;28;20066;-75
2023/10/20 03:32:10;;;;;;;56.60;25.67;;;8.10;99.90;;;;;;4992637;28;20294;-76
2023/10/20 03:34:35;;;;;;;46.80;25.20;;;8.10;99.90;;;;;;4993975;28;20054;-76
2023/10/20 03:37:02;;;;;;;54.07;26.47;;;8.10;99.90;;;;;;4993879;28;20347;-76
2023/10/20 03:39:28;;;;;;;58.47;26.67;;;8.10;99.90;;;;;;4996413;28;20050;-76
2023/10/20 03:41:54;;;;;;;53.73;25.37;;;8.10;99.90;;;;;;4997814;28;20776;-75
2023/10/20 03:44:21;;;;;;;43.23;23.73;;;8.20;99.90;;;;;;4997721;28;20277;-76
2023/10/20 03:46:51;;;;;;;50.57;25.30;;;8.10;99.90;;;;;;4997766;28;20056;-76
2023/10/20 03:49:18;;;;;;;46.50;25.33;;;8.10;99.90;;;;;;4996383;28;20800;-77
2023/10/20 03:51:50;;;;;;;57.87;26.10;;;8.10;99.90;;;;;;4996704;28;20360;-76
2023/10/20 03:54:17;;;;;;;51.47;25.63;;;8.10;99.90;;;;;;4998147;28;20790;-76
2023/10/20 03:56:43;;;;;;;46.57;23.47;;;8.10;99.90;;;;;;4998345;28;20281;-76
2023/10/20 03:59:09;;;;;;;52.00;26.17;;;8.10;99.90;;;;;;4997473;28;20285;-76
2023/10/20 04:01:35;;;;;;;46.77;25.07;;;8.10;99.90;;;;;;4997779;28;20360;-76
2023/10/20 04:04:01;;;;;;;51.60;25.33;;;8.10;99.90;;;;;;4997337;28;20373;-76
2023/10/20 04:06:27;;;;;;;51.33;24.67;;;8.00;99.90;;;;;;4996444;28;20383;-76
2023/10/20 04:08:53;;;;;;;45.37;23.83;;;8.00;99.90;;;;;;4997685;28;20359;-76
2023/10/20 04:11:19;;;;;;;42.30;23.20;;;8.10;99.90;;;;;;4997274;28;20053;-76
2023/10/20 04:13:44;;;;;;;45.07;23.77;;;8.00;99.90;;;;;;4997200;28;20061;-76
2023/10/20 04:16:15;;;;;;;37.43;22.47;;;8.00;99.90;;;;;;4997142;28;20501;-75
2023/10/20 04:18:42;;;;;;;40.87;22.73;;;8.00;99.90;;;;;;4997393;28;20475;-76
2023/10/20 04:21:08;;;;;;;42.87;24.13;;;8.00;99.90;;;;;;4997069;28;20285;-76
2023/10/20 04:23:34;;;;;;;42.70;23.63;;;8.00;99.90;;;;;;4996056;28;20289;-76
2023/10/20 04:26:03;;;;;;;41.33;22.00;;;8.00;99.90;;;;;;4997034;28;20321;-76
2023/10/20 04:29:07;;;;;;;39.60;22.13;;;8.00;99.90;;;;;;4996632;28;20706;-76
2023/10/20 04:58:35;;;;;;;31.07;18.77;;;7.90;99.90;;;;;;4996419;28;20349;-75
2023/10/20 05:01:07;;;;;;;;;;;7.90;99.90;;;;;;4996140;28;20718;-76
2023/10/20 05:04:13;;;;;;;29.33;17.33;;;7.80;99.90;;;;;;4995301;28;20377;-75
2023/10/20 05:07:05;;;;;;;26.87;17.03;;;7.80;99.90;;;;;;4994198;28;20762;-76
2023/10/20 05:09:17;;;;;;;33.97;18.77;;;7.80;99.90;;;;;;4993178;28;20306;-76
2023/10/20 05:11:43;;;;;;;28.77;19.07;;;7.80;99.90;;;;;;4995652;28;20380;-76
2023/10/20 05:14:09;;;;;;;26.00;16.87;;;7.80;99.90;;;;;;4996827;28;20081;-76
2023/10/20 05:16:35;;;;;;;27.30;17.07;;;7.70;99.90;;;;;;4996324;28;20518;-75
2023/10/20 05:19:04;;;;;;;24.37;15.23;;;7.80;99.90;;;;;;4995617;28;20050;-76
2023/10/20 05:21:38;;;;;;;21.83;15.93;;;7.80;99.90;;;;;;4995609;28;20043;-76
2023/10/20 05:24:04;;;;;;;28.27;16.87;;;7.90;99.90;;;;;;4995419;28;20273;-76
2023/10/20 05:26:31;;;;;;;22.07;14.37;;;7.80;99.90;;;;;;4995913;28;20307;-75
2023/10/20 05:28:58;;;;;;;21.40;13.93;;;7.90;99.90;;;;;;4995663;28;20796;-78
2023/10/20 05:31:25;;;;;;;19.03;13.00;;;7.90;99.90;;;;;;4995156;28;20281;-75
2023/10/20 05:33:52;;;;;;;22.37;13.83;;;7.90;99.90;;;;;;4995820;28;20294;-76
2023/10/20 05:36:18;;;;;;;25.77;15.37;;;7.80;99.90;;;;;;4994719;28;20641;-76
2023/10/20 05:38:44;;;;;;;22.50;14.30;;;7.80;99.90;;;;;;4996402;28;20278;-76
2023/10/20 05:41:11;;;;;;;20.47;13.30;;;7.80;99.90;;;;;;4994598;28;20285;-76
2023/10/20 05:43:38;;;;;;;22.77;13.30;;;7.90;99.90;;;;;;4995573;28;20285;-76
2023/10/20 05:46:04;;;;;;;21.27;13.70;;;7.90;99.90;;;;;;4995504;28;20376;-76
2023/10/20 05:48:30;;;;;;;18.07;12.30;;;7.80;99.90;;;;;;4993980;28;20396;-76
2023/10/20 05:50:57;;;;;;;20.40;13.73;;;7.80;99.90;;;;;;4995473;28;20054;-76
2023/10/20 05:53:26;;;;;;;21.10;13.50;;;7.90;99.90;;;;;;4995352;28;20288;-76
2023/10/20 05:55:52;;;;;;;20.53;13.07;;;7.90;99.90;;;;;;4995932;28;20323;-76
2023/10/20 05:58:19;;;;;;;17.17;11.87;;;7.90;99.90;;;;;;4995308;28;20281;-76
2023/10/20 06:00:44;;;;;;;16.87;10.90;;;7.80;99.90;;;;;;4995066;28;20727;-76
2023/10/20 06:03:11;;;;;;;18.53;11.43;;;7.80;99.90;;;;;;4995444;28;20297;-76
2023/10/20 06:05:38;;;;;;;18.97;10.77;;;7.80;99.90;;;;;;4994869;28;20512;-76
2023/10/20 06:08:04;;;;;;;15.17;10.23;;;7.90;99.90;;;;;;4995045;28;20302;-77
2023/10/20 06:10:30;;;;;;;19.27;11.43;;;7.80;99.90;;;;;;4993858;28;20285;-76
2023/10/20 06:12:56;;;;;;;17.60;10.63;;;7.80;99.90;;;;;;4995634;28;20274;-75
2023/10/20 06:15:22;;;;;;;14.63;9.70;;;7.80;99.90;;;;;;4978079;28;20304;-75
2023/10/20 06:17:49;;;;;;;15.33;10.03;;;7.90;99.90;;;;;;4995024;28;20090;-75
2023/10/20 06:20:18;;;;;;;17.47;10.07;;;7.90;99.90;;;;;;4995491;28;20061;-75
2023/10/20 06:22:44;;;;;;;16.03;9.57;;;8.00;99.90;;;;;;4994168;28;20286;-75
2023/10/20 06:25:12;;;;;;;12.37;8.33;;;7.90;99.90;;;;;;4994446;28;20498;-76
2023/10/20 06:27:42;;;;;;;11.43;8.57;;;7.90;99.90;;;;;;4993694;28;20286;-76
2023/10/20 06:30:22;;;;;;;12.67;8.73;;;7.90;99.90;;;;;;4993605;28;20344;-76
2023/10/20 06:32:56;;;;;;;13.03;8.77;;;8.00;99.90;;;;;;4993576;28;20288;-75
2023/10/20 06:35:32;;;;;;;11.70;7.87;;;8.00;99.90;;;;;;4994545;28;20294;-76
2023/10/20 06:40:33;;;;;;;13.57;7.95;;;7.90;99.90;;;;;;4993394;28;20289;-76
2023/10/20 06:42:58;;;;;;;13.53;7.50;;;8.00;99.90;;;;;;4994572;28;20100;-76
2023/10/20 06:45:24;;;;;;;12.27;8.00;;;8.00;99.90;;;;;;4994507;28;20517;-76
2023/10/20 06:47:50;;;;;;;13.37;7.60;;;7.90;99.90;;;;;;4993426;28;20046;-77
2023/10/20 06:50:15;;;;;;;11.17;7.03;;;8.00;99.90;;;;;;4977619;28;20614;-77
2023/10/20 06:52:41;;;;;;;13.57;8.03;;;7.90;99.90;;;;;;4993427;28;20046;-76
2023/10/20 06:55:07;;;;;;;12.53;7.43;;;7.90;99.90;;;;;;4994891;28;20057;-76
2023/10/20 06:57:33;;;;;;;10.77;6.57;;;7.90;99.90;;;;;;4995210;28;20128;-76
2023/10/20 07:00:00;;;;;;;11.30;6.90;;;8.00;99.90;;;;;;4993600;28;20885;-76
2023/10/20 07:02:25;;;;;;;11.27;6.60;;;8.00;99.90;;;;;;4994823;28;20285;-79
2023/10/20 07:04:51;;;;;;;10.67;6.87;;;8.00;99.90;;;;;;4993276;28;20289;-74
2023/10/20 07:07:18;;;;;;;10.67;6.63;;;8.00;99.90;;;;;;4994200;28;20050;-75
2023/10/20 07:09:46;;;;;;;11.23;6.13;;;8.00;99.90;;;;;;4994135;28;20085;-75
2023/10/20 07:12:13;;;;;;;11.20;5.70;;;8.10;99.90;;;;;;4994170;28;20277;-75
2023/10/20 07:14:39;;;;;;;11.83;5.87;;;8.00;99.90;;;;;;4993468;28;20288;-75
2023/10/20 07:17:06;;;;;;;12.13;6.87;;;8.00;99.90;;;;;;4994387;28;20285;-74
2023/10/20 07:19:35;;;;;;;13.23;6.57;;;8.10;99.90;;;;;;4993507;28;20049;-73
2023/10/20 07:22:05;;;;;;;11.03;6.27;;;8.00;99.90;;;;;;4994923;28;20335;-73
2023/10/20 07:24:31;;;;;;;13.07;5.50;;;8.00;99.90;;;;;;4994305;28;20453;-73
2023/10/20 07:26:57;;;;;;;12.10;5.93;;;8.00;99.90;;;;;;4994024;28;20282;-73
2023/10/20 07:29:23;;;;;;;8.67;4.47;;;8.00;99.90;;;;;;4993423;28;20359;-73
2023/10/20 07:31:49;;;;;;;8.60;4.90;;;8.00;99.90;;;;;;4993514;28;20388;-75
2023/10/20 07:34:15;;;;;;;10.93;4.90;;;8.00;99.90;;;;;;4993595;28;20348;-74
2023/10/20 07:36:42;;;;;;;9.17;4.80;;;8.00;99.90;;;;;;4993072;28;20053;-74
2023/10/20 07:39:09;;;;;;;9.23;5.40;;;8.00;99.90;;;;;;4993830;28;20065;-74
2023/10/20 07:41:35;;;;;;;13.30;5.60;;;8.00;99.90;;;;;;4993950;28;20304;-75
2023/10/20 07:44:04;;;;;;;9.43;4.83;;;7.90;99.90;;;;;;4993957;28;20340;-75
2023/10/20 07:46:31;;;;;;;7.53;3.60;;;7.90;99.90;;;;;;4993189;28;20293;-77
2023/10/20 07:48:57;;;;;;;9.13;4.47;;;7.90;99.90;;;;;;4992788;28;20670;-75
2023/10/20 07:51:23;;;;;;;6.53;4.30;;;7.90;99.90;;;;;;4992590;28;20293;-76
2023/10/20 07:53:49;;;;;;;8.50;3.40;;;7.90;99.90;;;;;;4993883;28;20284;-75
2023/10/20 07:56:15;;;;;;;6.90;3.70;;;7.80;99.90;;;;;;4993914;28;20277;-79
2023/10/20 07:58:41;;;;;;;8.67;4.07;;;7.80;99.90;;;;;;4993895;28;20047;-75
2023/10/20 08:01:07;;;;;;;9.27;4.00;;;7.80;99.90;;;;;;4993787;28;20047;-75
2023/10/20 08:03:33;;;;;;;7.40;3.40;;;7.80;99.90;;;;;;4993754;28;20289;-76
2023/10/20 08:06:03;;;;;;;8.00;3.67;;;7.70;99.90;;;;;;4994033;28;20376;-75
2023/10/20 08:08:29;;;;;;;8.63;3.57;;;7.80;99.90;;;;;;4994390;28;20054;-76
2023/10/20 08:10:55;;;;;;;7.90;3.53;;;7.80;99.90;;;;;;4993879;28;20317;-77
2023/10/20 08:13:21;;;;;;;6.27;3.60;;;7.70;99.90;;;;;;4993373;28;20833;-78
2023/10/20 08:15:47;;;;;;;9.63;3.13;;;7.70;99.90;;;;;;4992375;28;20368;-76
2023/10/20 08:18:13;;;;;;;5.60;3.10;;;7.70;99.90;;;;;;4993713;28;20483;-76
2023/10/20 08:20:39;;;;;;;9.23;4.47;;;7.70;99.90;;;;;;4993397;28;20301;-76
2023/10/20 08:23:05;;;;;;;6.77;3.33;;;7.60;99.90;;;;;;4993598;28;20089;-75
2023/10/20 08:25:30;;;;;;;9.73;3.43;;;7.70;99.90;;;;;;4996290;28;20360;-77
2023/10/20 08:27:57;;;;;;;6.47;2.80;;;7.70;99.90;;;;;;4997488;28;20046;-75
2023/10/20 08:30:23;;;;;;;7.33;2.90;;;7.70;99.90;;;;;;4997261;28;20502;-76
2023/10/20 08:32:49;;;;;;;5.70;2.93;;;7.70;99.90;;;;;;4996626;28;20325;-75
2023/10/20 08:35:15;;;;;;;5.67;2.97;;;7.70;99.90;;;;;;4997421;28;20058;-75
2023/10/20 08:37:41;;;;;;;4.20;2.17;;;7.70;99.90;;;;;;4996825;28;20380;-74
2023/10/20 08:40:13;;;;;;;5.93;3.20;;;7.70;99.90;;;;;;4996835;28;20050;-74
2023/10/20 08:42:39;;;;;;;7.20;3.23;;;7.70;99.90;;;;;;4996453;28;20502;-75
2023/10/20 08:45:12;;;;;;;6.07;3.03;;;7.60;99.90;;;;;;4995450;28;20697;-75
2023/10/20 08:47:42;;;;;;;7.67;3.20;;;7.60;99.90;;;;;;4996449;28;20297;-75
2023/10/20 08:50:09;;;;;;;6.63;2.30;;;7.60;99.90;;;;;;4997667;28;20288;-75
2023/10/20 08:52:36;;;;;;;5.53;2.50;;;7.60;99.90;;;;;;4996252;28;20761;-75
2023/10/20 08:55:04;;;;;;;5.73;2.93;;;7.60;99.90;;;;;;4996531;28;20721;-75
2023/10/20 08:57:29;;;;;;;5.10;2.67;;;7.60;99.90;;;;;;4996403;28;20281;-75
2023/10/20 08:59:55;;;;;;;8.70;3.40;;;7.60;99.90;;;;;;4996534;28;20429;-74
2023/10/20 09:02:22;;;;;;;7.70;2.90;;;7.50;99.90;;;;;;4997150;28;20494;-74
2023/10/20 09:04:53;;;;;;;7.60;3.50;;;7.50;99.90;;;;;;4996660;28;20390;-74
2023/10/20 09:07:21;;;;;;;6.40;3.50;;;7.50;99.90;;;;;;4995056;28;20292;-75
2023/10/20 09:09:47;;;;;;;5.77;2.50;;;7.50;99.90;;;;;;4995713;28;20301;-75
2023/10/20 09:12:13;;;;;;;5.80;3.07;;;7.50;99.90;;;;;;4996255;28;20284;-81
2023/10/20 09:14:39;;;;;;;5.30;2.70;;;7.50;99.90;;;;;;4995170;28;20470;-79
2023/10/20 09:17:08;;;;;;;4.70;2.60;;;7.50;99.90;;;;;;4995196;28;20281;-77
2023/10/20 09:19:34;;;;;;;4.77;2.50;;;7.50;99.90;;;;;;4996085;28;20313;-77
2023/10/20 09:22:01;;;;;;;4.53;2.27;;;7.50;99.90;;;;;;4995073;28;20753;-77
2023/10/20 09:24:34;;;;;;;4.60;2.20;;;7.60;99.90;;;;;;4996210;28;20364;-81
2023/10/20 09:27:01;;;;;;;4.10;2.23;;;7.50;99.90;;;;;;4995994;28;20289;-78
2023/10/20 09:29:30;;;;;;;6.77;2.60;;;7.50;99.90;;;;;;4994250;28;20316;-83
2023/10/20 09:31:59;;;;;;;6.03;2.27;;;7.40;99.90;;;;;;4995874;28;20297;-76
2023/10/20 09:34:25;;;;;;;5.53;2.90;;;7.50;99.90;;;;;;4996349;28;20763;-78
2023/10/20 09:36:52;;;;;;;5.00;2.10;;;7.50;99.90;;;;;;4995552;28;20309;-78
2023/10/20 09:39:26;;;;;;;4.13;2.07;;;7.40;99.90;;;;;;4995758;28;20125;-76
2023/10/20 09:41:54;;;;;;;3.73;2.10;;;7.50;99.90;;;;;;4995777;28;20352;-77
2023/10/20 09:44:28;;;;;;;5.53;2.60;;;7.50;99.90;;;;;;4994519;28;20629;-78
2023/10/20 09:46:55;;;;;;;4.67;2.20;;;7.40;99.90;;;;;;4995269;28;20476;-80
2023/10/20 09:49:26;;;;;;;6.00;2.37;;;7.40;99.90;;;;;;4995267;28;20790;-79
2023/10/20 09:51:57;;;;;;;5.77;2.67;;;7.40;99.90;;;;;;4977661;28;20352;-78
2023/10/20 09:54:30;;;;;;;9.03;2.50;;;7.40;99.90;;;;;;4995358;28;20278;-78
2023/10/20 09:56:57;;;;;;;4.43;2.40;;;7.40;99.90;;;;;;4995139;28;20281;-78
2023/10/20 09:59:25;;;;;;;5.23;2.17;;;7.40;99.90;;;;;;4994247;28;20333;-82
2023/10/20 10:02:02;;;;;;;3.87;1.80;;;7.40;99.90;;;;;;4994138;28;20293;-79
2023/10/20 10:04:37;;;;;;;5.57;2.00;;;7.30;99.90;;;;;;4995713;28;20598;-80
2023/10/20 10:07:07;;;;;;;4.03;1.70;;;7.40;99.90;;;;;;4995107;28;20288;-79
2023/10/20 10:09:43;;;;;;;5.80;1.77;;;7.30;99.90;;;;;;4995173;28;20046;-80
2023/10/20 10:12:19;;;;;;;4.33;2.10;;;7.30;99.90;;;;;;4978485;28;20289;-77
2023/10/20 10:15:01;;;;;;;5.47;2.20;;;7.30;99.90;;;;;;4994825;28;20286;-77
2023/10/20 10:17:27;;;;;;;4.90;2.40;;;7.30;99.90;;;;;;4994888;28;20285;-81
2023/10/20 10:19:54;;;;;;;4.80;2.10;;;7.20;99.90;;;;;;4977167;28;20294;-78
2023/10/20 10:22:28;;;;;;;4.83;1.83;;;7.20;99.90;;;;;;4994823;28;20293;-81
2023/10/20 10:25:00;;;;;;;4.97;2.20;;;7.30;99.90;;;;;;4994536;28;20289;-77
2023/10/20 10:27:27;;;;;;;5.83;1.87;;;7.30;99.90;;;;;;4993350;28;20380;-81
2023/10/20 10:30:05;;;;;;;5.50;2.20;;;7.20;99.90;;;;;;4993097;28;20364;-77
2023/10/20 10:32:32;;;;;;;4.63;1.37;;;7.20;99.90;;;;;;4995482;28;20364;-79
2023/10/20 10:34:58;;;;;;;3.80;1.70;;;7.20;99.90;;;;;;4993373;28;20800;-84
2023/10/20 10:37:37;;;;;;;4.00;1.27;;;7.20;99.90;;;;;;4977389;28;20499;-79
2023/10/20 10:40:13;;;;;;;4.50;1.80;;;7.20;99.90;;;;;;4994163;28;20285;-81
2023/10/20 10:42:50;;;;;;;3.10;1.50;;;7.20;99.90;;;;;;4977578;28;20298;-80
2023/10/20 10:45:24;;;;;;;5.90;1.50;;;7.20;99.90;;;;;;4994232;28;20291;-80
2023/10/20 10:47:51;;;;;;;3.53;1.80;;;7.20;99.90;;;;;;4976525;28;20382;-81
2023/10/20 10:50:19;;;;;;;5.23;1.50;;;7.20;99.90;;;;;;4994634;28;20343;-80
2023/10/20 10:52:46;;;;;;;2.37;1.20;;;7.10;99.90;;;;;;4992955;28;20290;-82
2023/10/20 10:55:13;;;;;;;3.57;1.20;;;7.10;99.90;;;;;;4993299;28;20298;-82
2023/10/20 10:57:40;;;;;;;2.37;1.30;;;7.10;99.90;;;;;;4977243;28;20301;-82
2023/10/20 11:00:07;;;;;;;5.20;1.13;;;7.10;99.90;;;;;;4993042;28;20286;-84
2023/10/20 11:02:33;;;;;;;2.47;1.27;;;7.10;99.90;;;;;;4993721;28;20294;-82
2023/10/20 11:05:00;;;;;;;2.40;1.13;;;7.10;99.90;;;;;;4977234;28;20294;-87
2023/10/20 11:07:26;;;;;;;2.17;1.20;;;7.00;99.90;;;;;;4993153;28;20297;-86
2023/10/20 11:09:53;;;;;;;5.17;1.50;;;7.10;99.90;;;;;;4993925;28;20305;-84
2023/10/20 11:12:22;;;;;;;4.57;1.40;;;7.10;99.90;;;;;;4976700;28;20108;-86
2023/10/20 11:14:47;;;;;;;4.43;1.20;;;7.10;99.90;;;;;;4976862;28;20296;-85
2023/10/20 11:17:16;;;;;;;3.27;1.33;;;7.00;99.90;;;;;;4961392;28;20376;-85
2023/10/20 11:19:42;;;;;;;2.57;1.10;;;7.00;99.90;;;;;;4977077;28;20089;-88
2023/10/20 11:22:17;;;;;;;2.70;0.90;;;7.00;99.90;;;;;;4993694;28;20281;-85
2023/10/20 11:24:52;;;;;;;1.77;0.80;;;7.00;99.90;;;;;;4977632;28;20058;-88
2023/10/20 11:27:17;;;;;;;2.80;0.75;;;7.00;99.90;;;;;;4993457;28;20058;-86
2023/10/20 11:29:45;;;;;;;2.10;1.10;;;7.10;99.90;;;;;;4993016;28;20474;-85
2023/10/20 11:32:13;;;;;;;2.13;0.90;;;7.00;99.90;;;;;;4945372;28;20053;-85
2023/10/20 11:34:39;;;;;;;1.60;0.80;;;6.90;99.90;;;;;;4977240;28;20286;-89
2023/10/20 11:37:05;;;;;;;1.53;0.67;;;7.00;99.90;;;;;;4992350;28;20293;-81
2023/10/20 11:39:36;;;;;;;2.37;1.00;;;7.00;99.90;;;;;;4994120;28;20621;-86
2023/10/20 11:42:02;;;;;;;2.30;1.23;;;7.00;99.90;;;;;;4993629;28;20320;-85
2023/10/20 11:44:28;;;;;;;2.07;0.83;;;7.00;99.90;;;;;;4960828;28;20297;-85
2023/10/20 11:46:55;;;;;;;4.97;1.70;;;7.00;99.90;;;;;;4992740;28;20293;-84
2023/10/20 11:49:23;;;;;;;4.67;1.47;;;7.00;99.90;;;;;;4976306;28;20305;-88
2023/10/20 11:51:48;;;;;;;2.17;1.03;;;7.00;99.90;;;;;;4992632;28;20297;-82
2023/10/20 11:54:14;;;;;;;3.07;1.00;;;7.00;99.90;;;;;;4992752;28;20288;-85
2023/10/20 11:56:40;;;;;;;1.90;0.90;;;7.00;99.90;;;;;;4992769;28;20189;-83
2023/10/20 11:59:07;;;;;;;2.03;1.20;;;7.00;99.90;;;;;;4992841;28;20108;-85
2023/10/20 12:01:33;;;;;;;1.70;0.90;;;7.10;99.90;;;;;;4979883;28;20285;-84
2023/10/20 12:04:05;;;;;;;2.00;1.00;;;7.10;99.90;;;;;;4997132;28;20296;-88
2023/10/20 12:06:32;;;;;;;2.03;1.00;;;7.00;99.90;;;;;;4980206;28;20405;-88
2023/10/20 12:08:57;;;;;;;2.70;1.10;;;7.00;99.90;;;;;;4996111;28;20673;-88
2023/10/20 12:11:23;;;;;;;2.53;1.03;;;7.00;99.90;;;;;;4980055;28;20308;-86
2023/10/20 12:13:49;;;;;;;2.30;1.00;;;7.00;99.90;;;;;;4996281;28;20057;-85
2023/10/20 12:16:16;;;;;;;1.03;0.70;;;7.00;99.90;;;;;;4963385;28;20056;-84
2023/10/20 12:18:42;;;;;;;1.97;1.00;;;7.00;99.90;;;;;;4980439;28;20100;-88
2023/10/20 12:21:08;;;;;;;3.30;0.90;;;7.00;99.90;;;;;;4979852;28;20359;-86
2023/10/20 12:23:34;;;;;;;3.13;0.90;;;7.00;99.90;;;;;;4996273;28;20290;-88
2023/10/20 12:26:00;;;;;;;2.47;1.00;;;7.00;99.90;;;;;;4995684;28;20289;-86
2023/10/20 12:28:26;;;;;;;1.50;0.77;;;7.00;99.90;;;;;;4979302;28;20687;-83
2023/10/20 12:30:52;;;;;;;1.37;0.90;;;6.90;99.90;;;;;;4995499;28;20325;-84
2023/10/20 12:33:18;;;;;;;1.70;0.90;;;6.90;99.90;;;;;;4963420;28;20309;-89
2023/10/20 12:35:44;;;;;;;2.73;1.10;;;6.90;99.90;;;;;;4997871;28;20286;-88
2023/10/20 12:38:09;;;;;;;1.57;0.87;;;6.90;99.90;;;;;;4995810;28;20046;-90
2023/10/20 12:40:39;;;;;;;1.43;0.80;;;7.00;99.90;;;;;;4979823;28;20054;-92
2023/10/20 12:43:09;;;;;;;1.77;0.87;;;7.00;99.90;;;;;;4980212;28;20081;-91
2023/10/20 12:45:38;;;;;;;1.60;0.90;;;7.00;99.90;;;;;;4997626;28;20281;-90
2023/10/20 12:48:05;;;;;;;1.17;0.70;;;7.00;99.90;;;;;;4981208;28;20305;-91
2023/10/20 12:50:32;;;;;;;2.37;0.90;;;6.90;99.90;;;;;;4996571;28;20290;-93
2023/10/20 12:53:03;;;;;;;1.70;1.00;;;6.90;99.90;;;;;;4979602;28;20301;-92
2023/10/20 12:55:30;;;;;;;2.07;0.90;;;6.90;99.90;;;;;;4980290;28;20289;-92
2023/10/20 12:57:56;;;;;;;1.97;0.80;;;6.90;99.90;;;;;;4980720;28;20281;-96
2023/10/20 13:00:25;;;;;;;1.70;0.80;;;6.90;99.90;;;;;;4980100;28;20297;-94
2023/10/20 13:02:52;;;;;;;1.20;0.77;;;6.90;99.90;;;;;;4997339;28;20289;-93
2023/10/20 13:05:19;;;;;;;3.83;0.90;;;6.80;99.90;;;;;;4982248;28;20296;-96
2023/10/20 13:07:45;;;;;;;1.73;0.90;;;6.90;99.90;;;;;;4980608;28;20348;-94
2023/10/20 13:10:11;;;;;;;2.20;0.93;;;6.90;99.90;;;;;;4948165;28;20294;-95
2023/10/20 13:12:37;;;;;;;1.90;0.70;;;6.90;99.90;;;;;;4978751;28;20096;-91
2023/10/20 13:15:04;;;;;;;2.10;0.90;;;6.80;99.90;;;;;;4980046;28;20113;-88
2023/10/20 13:17:33;;;;;;;1.90;0.90;;;6.80;99.90;;;;;;4995307;28;20129;-87
2023/10/20 13:20:00;;;;;;;1.00;0.77;;;6.90;99.90;;;;;;4978960;28;20776;-93